Schillplate — ZDJJ8 — position and weather

sailwx.info

Track history (hours):
 
Tides and Currents Weather Stations Pressure Air Temp Water Temp Dewpoint Dewpoint Depression Visibility Wind Speed Wind Dir Waves Ship Positions

Schillplate

Last reported at 2018-Feb-17 04:23 UTC. Time now 2018-Feb-19 11:44 UTC.
Position N 40°50' E 018°14'.

; draft 4.6 m.

Type: Cargo ship. MMSI: 236111603.

Date/timePositionNaut miles runAvg speedWind from/ knotsBaromVisibWave heightAir tempDewpointWater temp
2018-Feb-17 04:23N 40°50' E 018°14'4 9.0
2018-Feb-17 03:53N 40°46' E 018°18'6 9.0
2018-Feb-17 03:14N 40°41' E 018°21'2 9.0
2018-Feb-17 02:58N 40°39' E 018°22'39 8.9
2018-Feb-16 22:38N 40°02' E 018°40'1 8.7
2018-Feb-16 22:28N 40°01' E 018°39'4 8.7
2018-Feb-16 22:00N 39°58' E 018°37'5 9.1
2018-Feb-16 21:30N 39°53' E 018°35'4 9.0
2018-Feb-16 21:00N 39°49' E 018°32'135 8.9
2018-Feb-16 05:49N 38°11' E 016°33'35 9.2
2018-Feb-16 01:59N 37°49' E 015°58'5 9.6
2018-Feb-16 01:27N 37°49' E 015°52'4 9.7
2018-Feb-16 01:00N 37°49' E 015°46'5 9.7
2018-Feb-16 00:31N 37°52' E 015°41'510.1
2018-Feb-16 00:01N 37°55' E 015°36'5 9.7
2018-Feb-15 23:30N 37°60' E 015°34'510.8
2018-Feb-15 23:00N 38°05' E 015°34'511.0
2018-Feb-15 22:31N 38°10' E 015°35'510.8
2018-Feb-15 22:01N 38°15' E 015°38'4 7.6
2018-Feb-15 21:30N 38°19' E 015°37'510.3
2018-Feb-15 21:00N 38°20' E 015°31'510.1
2018-Feb-15 20:30N 38°20' E 015°25'510.0
2018-Feb-15 20:01N 38°20' E 015°18'510.1
2018-Feb-15 19:30N 38°20' E 015°12'510.1
2018-Feb-15 19:01N 38°20' E 015°05'510.0
2018-Feb-15 18:30N 38°20' E 014°59'510.2
2018-Feb-15 18:00N 38°20' E 014°52'510.0
2018-Feb-15 17:31N 38°20' E 014°46'5 9.8
2018-Feb-15 17:01N 38°20' E 014°40'32 9.7
2018-Feb-15 13:44N 38°20' E 013°59'3 9.5
2018-Feb-15 13:27N 38°20' E 013°56'5 9.5
2018-Feb-15 12:59N 38°20' E 013°50'4 9.4
2018-Feb-15 12:30N 38°20' E 013°44'5 9.4
2018-Feb-15 12:00N 38°20' E 013°38'5 9.5
2018-Feb-15 11:31N 38°20' E 013°32'510.1
2018-Feb-15 11:01N 38°20' E 013°26'510.3
2018-Feb-15 10:30N 38°20' E 013°19'510.0
2018-Feb-15 10:01N 38°20' E 013°13'5 9.7
2018-Feb-15 09:31N 38°20' E 013°07'5 9.7
2018-Feb-15 09:00N 38°20' E 013°01'5 9.4
2018-Feb-15 08:29N 38°19' E 012°55'5 9.7
2018-Feb-15 08:01N 38°19' E 012°49'8 9.4
2018-Feb-15 07:11N 38°19' E 012°39'  
2018-Feb-11 17:08N 35°59' W 005°16'212.4
2018-Feb-11 17:00N 35°59' W 005°18'713.1
2018-Feb-11 16:30N 35°57' W 005°25'280 9.2
2018-Feb-10 10:03N 38°45' W 010°08'210.8
2018-Feb-10 09:50N 38°47' W 010°08'410.7
2018-Feb-10 09:30N 38°51' W 010°08'510.5
2018-Feb-10 09:00N 38°56' W 010°08'510.5
2018-Feb-10 08:30N 39°01' W 010°08'510.4
2018-Feb-10 08:01N 39°06' W 010°08'  
2018-Feb-07 06:56N 49°50' W 003°26'511.2
2018-Feb-07 06:30N 49°52' W 003°19'611.6
2018-Feb-07 06:00N 49°55' W 003°12'611.8
2018-Feb-07 05:31N 49°58' W 003°04'611.6
2018-Feb-07 04:59N 50°01' W 002°55'611.4
2018-Feb-07 04:30N 50°03' W 002°47'  
Track history (hours):
 
Tides and Currents Weather Stations Pressure Air Temp Water Temp Dewpoint Dewpoint Depression Visibility Wind Speed Wind Dir Waves Ship Positions

Schillplate

Last reported at 2018-Feb-17 04:23 UTC. Time now 2018-Feb-19 11:44 UTC.
Position N 40°50' E 018°14'.

; draft 4.6 m.

Type: Cargo ship. MMSI: 236111603.

Date/timePositionNaut miles runAvg speedWind from/ knotsBaromVisibWave heightAir tempDewpointWater temp
2018-Feb-17 04:23N 40°50' E 018°14'4 9.0
2018-Feb-17 03:53N 40°46' E 018°18'6 9.0
2018-Feb-17 03:14N 40°41' E 018°21'2 9.0
2018-Feb-17 02:58N 40°39' E 018°22'39 8.9
2018-Feb-16 22:38N 40°02' E 018°40'1 8.7
2018-Feb-16 22:28N 40°01' E 018°39'4 8.7
2018-Feb-16 22:00N 39°58' E 018°37'5 9.1
2018-Feb-16 21:30N 39°53' E 018°35'4 9.0
2018-Feb-16 21:00N 39°49' E 018°32'135 8.9
2018-Feb-16 05:49N 38°11' E 016°33'35 9.2
2018-Feb-16 01:59N 37°49' E 015°58'5 9.6
2018-Feb-16 01:27N 37°49' E 015°52'4 9.7
2018-Feb-16 01:00N 37°49' E 015°46'5 9.7
2018-Feb-16 00:31N 37°52' E 015°41'510.1
2018-Feb-16 00:01N 37°55' E 015°36'5 9.7
2018-Feb-15 23:30N 37°60' E 015°34'510.8
2018-Feb-15 23:00N 38°05' E 015°34'511.0
2018-Feb-15 22:31N 38°10' E 015°35'510.8
2018-Feb-15 22:01N 38°15' E 015°38'4 7.6
2018-Feb-15 21:30N 38°19' E 015°37'510.3
2018-Feb-15 21:00N 38°20' E 015°31'510.1
2018-Feb-15 20:30N 38°20' E 015°25'510.0
2018-Feb-15 20:01N 38°20' E 015°18'510.1
2018-Feb-15 19:30N 38°20' E 015°12'510.1
2018-Feb-15 19:01N 38°20' E 015°05'510.0
2018-Feb-15 18:30N 38°20' E 014°59'510.2
2018-Feb-15 18:00N 38°20' E 014°52'510.0
2018-Feb-15 17:31N 38°20' E 014°46'5 9.8
2018-Feb-15 17:01N 38°20' E 014°40'32 9.7
2018-Feb-15 13:44N 38°20' E 013°59'3 9.5
2018-Feb-15 13:27N 38°20' E 013°56'5 9.5
2018-Feb-15 12:59N 38°20' E 013°50'4 9.4
2018-Feb-15 12:30N 38°20' E 013°44'5 9.4
2018-Feb-15 12:00N 38°20' E 013°38'5 9.5
2018-Feb-15 11:31N 38°20' E 013°32'510.1
2018-Feb-15 11:01N 38°20' E 013°26'510.3
2018-Feb-15 10:30N 38°20' E 013°19'510.0
2018-Feb-15 10:01N 38°20' E 013°13'5 9.7
2018-Feb-15 09:31N 38°20' E 013°07'5 9.7
2018-Feb-15 09:00N 38°20' E 013°01'5 9.4
2018-Feb-15 08:29N 38°19' E 012°55'5 9.7
2018-Feb-15 08:01N 38°19' E 012°49'8 9.4
2018-Feb-15 07:11N 38°19' E 012°39'  
2018-Feb-11 17:08N 35°59' W 005°16'212.4
2018-Feb-11 17:00N 35°59' W 005°18'713.1
2018-Feb-11 16:30N 35°57' W 005°25'280 9.2
2018-Feb-10 10:03N 38°45' W 010°08'210.8
2018-Feb-10 09:50N 38°47' W 010°08'410.7
2018-Feb-10 09:30N 38°51' W 010°08'510.5
2018-Feb-10 09:00N 38°56' W 010°08'510.5
2018-Feb-10 08:30N 39°01' W 010°08'510.4
2018-Feb-10 08:01N 39°06' W 010°08'  
2018-Feb-07 06:56N 49°50' W 003°26'511.2
2018-Feb-07 06:30N 49°52' W 003°19'611.6
2018-Feb-07 06:00N 49°55' W 003°12'611.8
2018-Feb-07 05:31N 49°58' W 003°04'611.6
2018-Feb-07 04:59N 50°01' W 002°55'611.4
2018-Feb-07 04:30N 50°03' W 002°47'  

Dump ship's entire track history